Time;durP1;ratioP1;P1;durP2;ratioP2;P2;SDS_P1;SDS_P2;PMS_P1;PMS_P2;Temp;Humidity;BMP_temperature;BMP_pressure;BME280_temperature;BME280_humidity;BME280_pressure;Samples;Min_cycle;Max_cycle;Signal;HPM_P1;HPM_P2
2022/01/31 00:01:35;;;;;;;7.93;3.47;;;;;;;;;;5095008;28;20462;-76
2022/01/31 00:04:03;;;;;;;12.40;3.80;;;;;;;;;;5094933;28;20451;-77
2022/01/31 00:06:30;;;;;;;4.23;3.03;;;;;;;;;;5094484;28;20494;-77
2022/01/31 00:08:57;;;;;;;6.30;3.60;;;;;;;;;;5094799;28;20474;-77
2022/01/31 00:11:25;;;;;;;9.30;3.73;;;;;;;;;;5094740;28;20472;-76
2022/01/31 00:14:00;;;;;;;16.27;4.53;;;;;;;;;;5094680;28;20511;-76
2022/01/31 00:16:32;;;;;;;6.80;3.57;;;;;;;;;;5094676;28;20959;-76
2022/01/31 00:18:59;;;;;;;8.80;4.07;;;;;;;;;;5094684;28;20840;-76
2022/01/31 00:21:27;;;;;;;8.17;3.37;;;;;;;;;;5094622;28;20821;-76
2022/01/31 00:23:54;;;;;;;7.93;3.53;;;;;;;;;;5094628;28;20454;-76
2022/01/31 00:26:21;;;;;;;4.40;3.30;;;;;;;;;;5094128;28;20491;-76
2022/01/31 00:28:48;;;;;;;7.13;3.43;;;;;;;;;;5094215;28;20450;-76
2022/01/31 00:31:16;;;;;;;4.10;2.80;;;;;;;;;;5094409;28;20537;-76
2022/01/31 00:33:43;;;;;;;7.10;3.40;;;;;;;;;;5094431;28;20446;-76
2022/01/31 00:36:10;;;;;;;10.77;3.40;;;;;;;;;;5094173;28;20466;-76
2022/01/31 00:38:39;;;;;;;4.20;3.00;;;;;;;;;;5094470;28;20455;-76
2022/01/31 00:41:06;;;;;;;10.50;2.77;;;;;;;;;;5094352;28;20450;-77
2022/01/31 00:43:35;;;;;;;4.40;3.13;;;;;;;;;;5093996;28;20439;-76
2022/01/31 00:46:10;;;;;;;5.67;3.00;;;;;;;;;;5093584;28;20490;-76
2022/01/31 00:48:42;;;;;;;5.37;3.20;;;;;;;;;;5094037;28;20434;-76
2022/01/31 00:51:09;;;;;;;15.17;4.70;;;;;;;;;;5093897;28;20529;-76
2022/01/31 00:53:36;;;;;;;4.93;3.40;;;;;;;;;;5094001;28;20490;-77
2022/01/31 00:56:05;;;;;;;5.07;3.40;;;;;;;;;;5094005;28;20532;-77
2022/01/31 00:58:32;;;;;;;6.47;3.10;;;;;;;;;;5093957;28;20458;-76
2022/01/31 01:00:59;;;;;;;10.73;4.10;;;;;;;;;;5093982;28;20454;-76
2022/01/31 01:03:26;;;;;;;10.50;4.13;;;;;;;;;;5093893;28;20454;-76
2022/01/31 01:05:53;;;;;;;7.37;3.97;;;;;;;;;;5093486;28;20482;-76
2022/01/31 01:08:21;;;;;;;14.47;4.33;;;;;;;;;;5093526;28;20463;-77
2022/01/31 01:10:48;;;;;;;5.53;3.47;;;;;;;;;;5093457;28;20443;-76
2022/01/31 01:13:16;;;;;;;12.00;4.50;;;;;;;;;;5093869;28;20450;-76
2022/01/31 01:15:43;;;;;;;10.00;3.50;;;;;;;;;;5093415;28;20553;-77
2022/01/31 01:18:10;;;;;;;4.60;2.90;;;;;;;;;;5093758;28;20447;-76
2022/01/31 01:20:38;;;;;;;8.43;3.40;;;;;;;;;;5093683;28;20924;-76
2022/01/31 01:23:05;;;;;;;9.73;3.43;;;;;;;;;;5093355;28;20451;-77
2022/01/31 01:25:33;;;;;;;8.70;3.90;;;;;;;;;;5093423;28;20474;-76
2022/01/31 01:28:00;;;;;;;9.17;4.77;;;;;;;;;;5093256;28;20501;-77
2022/01/31 01:30:29;;;;;;;8.47;3.90;;;;;;;;;;5093558;28;20446;-77
2022/01/31 01:33:05;;;;;;;19.23;3.43;;;;;;;;;;5093157;28;20458;-76
2022/01/31 01:35:33;;;;;;;5.53;3.87;;;;;;;;;;5093461;28;20527;-77
2022/01/31 01:38:05;;;;;;;15.20;3.90;;;;;;;;;;5093473;28;20451;-77
2022/01/31 01:40:32;;;;;;;10.40;3.90;;;;;;;;;;5093469;28;20798;-77
2022/01/31 01:43:00;;;;;;;14.20;3.73;;;;;;;;;;5093382;28;20458;-77
2022/01/31 01:45:28;;;;;;;11.50;3.40;;;;;;;;;;5093246;28;20451;-76
2022/01/31 01:47:55;;;;;;;12.13;3.63;;;;;;;;;;5093156;28;20772;-76
2022/01/31 01:50:22;;;;;;;8.63;4.23;;;;;;;;;;5093306;28;20450;-76
2022/01/31 01:52:50;;;;;;;11.90;3.60;;;;;;;;;;5093119;28;20450;-76
2022/01/31 01:55:18;;;;;;;17.10;3.40;;;;;;;;;;5093296;28;20859;-77
2022/01/31 01:57:45;;;;;;;5.20;3.77;;;;;;;;;;5093546;28;20449;-77
2022/01/31 02:00:16;;;;;;;10.23;4.37;;;;;;;;;;5097333;28;20461;-76
2022/01/31 02:02:45;;;;;;;7.93;4.53;;;;;;;;;;5097324;28;20446;-77
2022/01/31 02:05:12;;;;;;;15.10;4.33;;;;;;;;;;5096818;28;20457;-76
2022/01/31 02:07:40;;;;;;;11.50;5.93;;;;;;;;;;5096671;28;20487;-76
2022/01/31 02:10:08;;;;;;;11.00;5.77;;;;;;;;;;5097209;28;20446;-76
2022/01/31 02:12:41;;;;;;;12.83;5.70;;;;;;;;;;5097111;28;20450;-76
2022/01/31 02:15:09;;;;;;;12.30;5.43;;;;;;;;;;5096788;28;20451;-76
2022/01/31 02:17:36;;;;;;;13.90;5.27;;;;;;;;;;5096898;28;20493;-76
2022/01/31 02:20:06;;;;;;;8.27;4.10;;;;;;;;;;5096766;28;20443;-76
2022/01/31 02:22:35;;;;;;;5.40;4.17;;;;;;;;;;5097003;28;20477;-76
2022/01/31 02:25:02;;;;;;;6.67;3.70;;;;;;;;;;5096629;28;20439;-76
2022/01/31 02:27:31;;;;;;;12.60;3.50;;;;;;;;;;5096671;28;20494;-76
2022/01/31 02:29:58;;;;;;;9.20;4.80;;;;;;;;;;5096638;28;20966;-77
2022/01/31 02:32:25;;;;;;;13.37;4.03;;;;;;;;;;5096446;28;20461;-76
2022/01/31 02:34:53;;;;;;;7.37;4.70;;;;;;;;;;5096675;28;20826;-76
2022/01/31 02:37:20;;;;;;;11.00;3.77;;;;;;;;;;5096577;28;20470;-76
2022/01/31 02:39:49;;;;;;;9.70;4.90;;;;;;;;;;5096471;28;20889;-76
2022/01/31 02:42:16;;;;;;;10.33;4.70;;;;;;;;;;5096571;28;20450;-76
2022/01/31 02:44:44;;;;;;;13.10;4.50;;;;;;;;;;5096177;28;20435;-76
2022/01/31 02:47:15;;;;;;;6.67;3.93;;;;;;;;;;5096451;28;20498;-76
2022/01/31 02:49:49;;;;;;;7.20;4.27;;;;;;;;;;5096439;28;20466;-76
2022/01/31 02:52:17;;;;;;;6.93;4.37;;;;;;;;;;5096184;28;20474;-76
2022/01/31 02:54:44;;;;;;;16.87;5.70;;;;;;;;;;5096257;28;21023;-77
2022/01/31 02:57:13;;;;;;;10.17;4.67;;;;;;;;;;5095799;28;20473;-76
2022/01/31 02:59:40;;;;;;;10.00;4.93;;;;;;;;;;5096045;28;20451;-76
2022/01/31 03:02:08;;;;;;;10.53;4.10;;;;;;;;;;5096138;28;20450;-77
2022/01/31 03:04:35;;;;;;;17.20;5.73;;;;;;;;;;5096004;28;20817;-76
2022/01/31 03:07:02;;;;;;;8.87;4.47;;;;;;;;;;5095550;28;20502;-77
2022/01/31 03:09:29;;;;;;;5.83;4.33;;;;;;;;;;5095126;28;20439;-77
2022/01/31 03:11:56;;;;;;;10.80;5.90;;;;;;;;;;5096043;28;20475;-78
2022/01/31 03:14:25;;;;;;;8.73;4.93;;;;;;;;;;5095958;28;20442;-77
2022/01/31 03:16:52;;;;;;;15.83;5.90;;;;;;;;;;5095779;28;20463;-77
2022/01/31 03:19:20;;;;;;;13.67;6.10;;;;;;;;;;5095593;28;20451;-77
2022/01/31 03:21:47;;;;;;;7.43;5.00;;;;;;;;;;5095802;28;20454;-77
2022/01/31 03:24:14;;;;;;;7.03;4.40;;;;;;;;;;5095255;28;20463;-77
2022/01/31 03:26:42;;;;;;;10.17;4.97;;;;;;;;;;5095564;28;20490;-77
2022/01/31 03:29:09;;;;;;;7.33;4.40;;;;;;;;;;5095767;28;20451;-77
2022/01/31 03:31:38;;;;;;;8.23;4.80;;;;;;;;;;5095289;28;20450;-77
2022/01/31 03:34:05;;;;;;;8.07;4.33;;;;;;;;;;5095215;28;20457;-77
2022/01/31 03:36:32;;;;;;;12.10;4.47;;;;;;;;;;5095156;28;20466;-77
2022/01/31 03:38:59;;;;;;;12.63;5.40;;;;;;;;;;5095510;28;20451;-77
2022/01/31 03:41:26;;;;;;;10.50;4.23;;;;;;;;;;5095463;28;20455;-77
2022/01/31 03:43:53;;;;;;;6.93;4.30;;;;;;;;;;5095443;28;20497;-77
2022/01/31 03:46:21;;;;;;;10.60;4.60;;;;;;;;;;5095206;28;20816;-77
2022/01/31 03:48:49;;;;;;;8.83;4.73;;;;;;;;;;5095467;28;20514;-77
2022/01/31 03:51:17;;;;;;;19.63;10.23;;;;;;;;;;5095022;28;20435;-77
2022/01/31 03:53:44;;;;;;;13.33;6.80;;;;;;;;;;5094790;28;20458;-77
2022/01/31 03:56:11;;;;;;;18.47;4.23;;;;;;;;;;5094771;28;20477;-77
2022/01/31 03:58:38;;;;;;;4.53;3.07;;;;;;;;;;5095136;28;20451;-77
2022/01/31 04:01:05;;;;;;;12.03;4.30;;;;;;;;;;5094770;28;20454;-77
2022/01/31 04:03:34;;;;;;;8.80;3.87;;;;;;;;;;5095054;28;20447;-77
2022/01/31 04:06:02;;;;;;;13.57;3.50;;;;;;;;;;5094497;28;20563;-76
2022/01/31 04:08:29;;;;;;;7.40;4.23;;;;;;;;;;5094486;28;20557;-76
2022/01/31 04:10:57;;;;;;;8.20;3.43;;;;;;;;;;5094779;28;20454;-76
2022/01/31 04:13:26;;;;;;;4.60;2.80;;;;;;;;;;5094695;28;20451;-76
2022/01/31 04:15:53;;;;;;;6.57;3.60;;;;;;;;;;5094636;28;20569;-77
2022/01/31 04:18:20;;;;;;;10.73;4.53;;;;;;;;;;5094630;28;20447;-76
2022/01/31 04:20:47;;;;;;;12.60;4.60;;;;;;;;;;5094546;28;20446;-77
2022/01/31 04:23:18;;;;;;;13.83;4.00;;;;;;;;;;5094607;28;20458;-76
2022/01/31 04:25:52;;;;;;;5.10;3.77;;;;;;;;;;5094145;28;20485;-76
2022/01/31 04:28:22;;;;;;;7.60;4.03;;;;;;;;;;5094447;28;20814;-76
2022/01/31 04:30:57;;;;;;;9.30;3.90;;;;;;;;;;5094124;28;20465;-76
2022/01/31 04:33:25;;;;;;;6.17;3.63;;;;;;;;;;5094023;28;20460;-76
2022/01/31 04:35:52;;;;;;;7.53;2.87;;;;;;;;;;5093993;28;20471;-76
2022/01/31 04:38:20;;;;;;;7.13;3.40;;;;;;;;;;5093973;28;20508;-76
2022/01/31 04:40:48;;;;;;;14.17;3.90;;;;;;;;;;5093938;28;20470;-76
2022/01/31 04:43:15;;;;;;;9.50;3.70;;;;;;;;;;5094187;28;20797;-76
2022/01/31 04:45:47;;;;;;;10.97;4.63;;;;;;;;;;5093872;28;20481;-76
2022/01/31 04:48:15;;;;;;;7.83;3.63;;;;;;;;;;5093741;28;20479;-76
2022/01/31 04:50:42;;;;;;;14.20;3.40;;;;;;;;;;5094123;28;20439;-76
2022/01/31 04:53:09;;;;;;;9.03;3.57;;;;;;;;;;5094064;28;20815;-76
2022/01/31 04:55:37;;;;;;;12.00;4.17;;;;;;;;;;5093679;28;20971;-76
2022/01/31 04:58:05;;;;;;;12.63;3.50;;;;;;;;;;5093852;28;20442;-76
2022/01/31 05:00:33;;;;;;;10.33;3.67;;;;;;;;;;5093945;28;20447;-76
2022/01/31 05:03:00;;;;;;;8.00;3.80;;;;;;;;;;5093880;28;20450;-77
2022/01/31 05:05:27;;;;;;;7.73;4.47;;;;;;;;;;5093782;28;20939;-76
2022/01/31 05:07:55;;;;;;;11.33;4.57;;;;;;;;;;5093514;28;20995;-76
2022/01/31 05:10:22;;;;;;;6.03;2.83;;;;;;;;;;5093466;28;20459;-76
2022/01/31 05:12:51;;;;;;;7.83;3.17;;;;;;;;;;5093711;28;20454;-76
2022/01/31 05:15:18;;;;;;;13.03;3.30;;;;;;;;;;5093645;28;20450;-76
2022/01/31 05:17:45;;;;;;;8.30;3.70;;;;;;;;;;5093655;28;20454;-76
2022/01/31 05:20:12;;;;;;;9.50;3.60;;;;;;;;;;5093275;28;20465;-76
2022/01/31 05:22:39;;;;;;;9.63;3.83;;;;;;;;;;5093625;28;20815;-76
2022/01/31 05:25:07;;;;;;;7.87;3.33;;;;;;;;;;5093162;28;20451;-77
2022/01/31 05:27:34;;;;;;;5.63;3.57;;;;;;;;;;5093156;28;20486;-76
2022/01/31 05:30:02;;;;;;;7.03;3.70;;;;;;;;;;5093254;28;20454;-76
2022/01/31 05:32:29;;;;;;;9.97;3.87;;;;;;;;;;5092548;28;20558;-76
2022/01/31 05:34:57;;;;;;;8.60;3.67;;;;;;;;;;5093482;28;20446;-77
2022/01/31 05:37:24;;;;;;;10.23;4.63;;;;;;;;;;5093181;28;20461;-76
2022/01/31 05:39:51;;;;;;;7.63;4.63;;;;;;;;;;5093109;28;20816;-76
2022/01/31 05:42:18;;;;;;;4.30;3.17;;;;;;;;;;5093251;28;20845;-76
2022/01/31 05:44:47;;;;;;;13.43;5.13;;;;;;;;;;5093013;28;20819;-76
2022/01/31 05:47:15;;;;;;;9.43;3.80;;;;;;;;;;5092795;28;20529;-76
2022/01/31 05:49:42;;;;;;;10.53;3.80;;;;;;;;;;5093104;28;20442;-76
2022/01/31 05:52:09;;;;;;;19.27;4.67;;;;;;;;;;5093337;28;20439;-76
2022/01/31 05:54:38;;;;;;;8.37;4.23;;;;;;;;;;5093313;28;20454;-76
2022/01/31 05:57:06;;;;;;;14.37;4.50;;;;;;;;;;5093026;28;20478;-76
2022/01/31 05:59:33;;;;;;;9.73;4.20;;;;;;;;;;5093212;28;20962;-77
2022/01/31 06:02:01;;;;;;;10.43;3.83;;;;;;;;;;5093272;28;20455;-76
2022/01/31 06:04:30;;;;;;;9.17;3.97;;;;;;;;;;5093085;28;20447;-77
2022/01/31 06:06:57;;;;;;;5.90;4.03;;;;;;;;;;5093136;28;20486;-77
2022/01/31 06:09:26;;;;;;;11.13;4.97;;;;;;;;;;5093201;28;20970;-76
2022/01/31 06:11:54;;;;;;;9.33;3.80;;;;;;;;;;5093109;28;21005;-76
2022/01/31 06:14:21;;;;;;;15.70;5.03;;;;;;;;;;5092856;28;20446;-76
2022/01/31 06:16:48;;;;;;;10.40;3.70;;;;;;;;;;5093138;28;20478;-76
2022/01/31 06:19:15;;;;;;;7.63;4.17;;;;;;;;;;5093078;28;20453;-76
2022/01/31 06:21:44;;;;;;;11.97;4.80;;;;;;;;;;5093093;28;20447;-76
2022/01/31 06:24:13;;;;;;;14.40;4.83;;;;;;;;;;5093034;28;20462;-76
2022/01/31 06:26:40;;;;;;;11.87;4.00;;;;;;;;;;5092612;28;20482;-76
2022/01/31 06:29:07;;;;;;;9.10;3.80;;;;;;;;;;5092916;28;20846;-76
2022/01/31 06:31:34;;;;;;;13.25;5.60;;;;;;;;;;5092253;28;20450;-76
2022/01/31 06:34:02;;;;;;;11.20;5.23;;;;;;;;;;5092963;28;20213;-76
2022/01/31 06:36:29;;;;;;;5.33;3.70;;;;;;;;;;5092718;28;20486;-76
2022/01/31 06:38:58;;;;;;;11.97;5.47;;;;;;;;;;5092915;28;20431;-76
2022/01/31 06:41:26;;;;;;;8.47;4.73;;;;;;;;;;5092916;28;20453;-76
2022/01/31 06:43:54;;;;;;;13.67;4.77;;;;;;;;;;5092901;28;20973;-76
2022/01/31 06:46:21;;;;;;;20.70;7.50;;;;;;;;;;5095674;28;20471;-76
2022/01/31 06:48:48;;;;;;;10.87;6.80;;;;;;;;;;5096394;28;20489;-76
2022/01/31 06:51:15;;;;;;;37.73;10.50;;;;;;;;;;5096200;28;20435;-76
2022/01/31 06:53:42;;;;;;;69.40;26.93;;;;;;;;;;5096324;28;20458;-76
2022/01/31 06:56:11;;;;;;;57.13;26.00;;;;;;;;;;5095952;28;20470;-76
2022/01/31 06:58:38;;;;;;;49.23;21.57;;;;;;;;;;5095914;28;20493;-76
2022/01/31 07:01:05;;;;;;;32.13;15.73;;;;;;;;;;5095809;28;20463;-76
2022/01/31 07:03:36;;;;;;;24.03;9.33;;;;;;;;;;5096153;28;20458;-76
2022/01/31 07:06:03;;;;;;;12.60;5.70;;;;;;;;;;5096105;28;20561;-76
2022/01/31 07:08:30;;;;;;;14.23;5.60;;;;;;;;;;5095619;28;20495;-76
2022/01/31 07:10:57;;;;;;;11.93;4.93;;;;;;;;;;5095722;28;20450;-76
2022/01/31 07:13:36;;;;;;;5.00;2.87;;;;;;;;;;5095997;28;20454;-76
2022/01/31 07:16:04;;;;;;;11.03;5.30;;;;;;;;;;5096197;28;20478;-76
2022/01/31 07:18:33;;;;;;;7.80;4.93;;;;;;;;;;5095851;28;20475;-75
2022/01/31 07:21:00;;;;;;;10.33;4.80;;;;;;;;;;5095854;28;21010;-76
2022/01/31 07:23:37;;;;;;;7.17;4.43;;;;;;;;;;5095504;28;20538;-76
2022/01/31 07:26:04;;;;;;;6.20;3.40;;;;;;;;;;5095542;28;20512;-76
2022/01/31 07:28:33;;;;;;;10.47;4.33;;;;;;;;;;5095333;28;20479;-75
2022/01/31 07:31:00;;;;;;;9.60;5.63;;;;;;;;;;5095668;28;20451;-76
2022/01/31 07:33:27;;;;;;;6.70;4.77;;;;;;;;;;5095601;28;20465;-76
2022/01/31 07:35:55;;;;;;;13.70;5.27;;;;;;;;;;5095125;28;21014;-76
2022/01/31 07:38:22;;;;;;;8.40;5.17;;;;;;;;;;5095480;28;20454;-75
2022/01/31 07:40:51;;;;;;;6.50;4.17;;;;;;;;;;5093480;28;20455;-76
2022/01/31 07:43:18;;;;;;;11.93;4.67;;;;;;;;;;5094010;28;20474;-75
2022/01/31 07:45:47;;;;;;;14.60;5.17;;;;;;;;;;5093743;28;20471;-75
2022/01/31 07:48:14;;;;;;;7.87;5.80;;;;;;;;;;5094045;28;20990;-76
2022/01/31 07:50:41;;;;;;;11.73;5.17;;;;;;;;;;5094103;28;20442;-75
2022/01/31 07:53:09;;;;;;;9.13;6.33;;;;;;;;;;5093987;28;20451;-75
2022/01/31 07:55:36;;;;;;;8.20;5.37;;;;;;;;;;5093469;28;20463;-75
2022/01/31 07:58:03;;;;;;;10.77;5.03;;;;;;;;;;5093370;28;20443;-75
2022/01/31 08:00:30;;;;;;;10.40;6.27;;;;;;;;;;5093821;28;20435;-75
2022/01/31 08:02:59;;;;;;;10.90;4.90;;;;;;;;;;5093409;28;20465;-74
2022/01/31 08:05:26;;;;;;;6.50;3.77;;;;;;;;;;5093347;28;20935;-75
2022/01/31 08:07:53;;;;;;;5.10;3.67;;;;;;;;;;5093338;28;20739;-74
2022/01/31 08:10:20;;;;;;;8.30;3.80;;;;;;;;;;5093768;28;20455;-75
2022/01/31 08:12:47;;;;;;;6.33;4.47;;;;;;;;;;5093299;28;20454;-75
2022/01/31 08:15:22;;;;;;;8.77;4.90;;;;;;;;;;5093376;28;20443;-75
2022/01/31 08:17:49;;;;;;;9.10;4.13;;;;;;;;;;5093566;28;20441;-75
2022/01/31 08:20:18;;;;;;;6.03;5.10;;;;;;;;;;5093480;28;20951;-75
2022/01/31 08:22:45;;;;;;;6.63;3.43;;;;;;;;;;5093503;28;20821;-76
2022/01/31 08:25:14;;;;;;;6.67;3.57;;;;;;;;;;5093200;28;20455;-75
2022/01/31 08:27:43;;;;;;;9.53;3.93;;;;;;;;;;5093153;28;20481;-74
2022/01/31 08:30:15;;;;;;;7.60;4.07;;;;;;;;;;5094197;28;20461;-76
2022/01/31 08:32:57;;;;;;;7.97;3.20;;;;;;;;;;5094118;28;20438;-76
2022/01/31 08:38:10;;;;;;;9.40;3.20;;;;;;;;;;5094184;28;20419;-75
2022/01/31 08:40:38;;;;;;;5.40;3.30;;;;;;;;;;5094154;28;21053;-75
2022/01/31 08:43:05;;;;;;;5.67;3.20;;;;;;;;;;5093514;28;20462;-76
2022/01/31 08:45:33;;;;;;;5.33;2.50;;;;;;;;;;5094055;28;21010;-76
2022/01/31 08:48:00;;;;;;;8.13;3.13;;;;;;;;;;5094120;28;20459;-76
2022/01/31 08:50:29;;;;;;;5.07;3.10;;;;;;;;;;5093952;28;20463;-76
2022/01/31 08:52:56;;;;;;;10.67;3.80;;;;;;;;;;5094072;28;20912;-76
2022/01/31 08:55:24;;;;;;;11.23;4.80;;;;;;;;;;5093968;28;20458;-75
2022/01/31 08:57:54;;;;;;;11.83;5.40;;;;;;;;;;5093668;28;20539;-76
2022/01/31 09:00:21;;;;;;;10.13;5.27;;;;;;;;;;5094261;28;20548;-76
2022/01/31 09:03:01;;;;;;;20.37;5.37;;;;;;;;;;5093877;28;20822;-76
2022/01/31 09:05:29;;;;;;;6.03;3.10;;;;;;;;;;5093851;28;20793;-76
2022/01/31 09:07:56;;;;;;;9.53;4.20;;;;;;;;;;5092657;28;20469;-75
2022/01/31 09:10:23;;;;;;;8.50;4.57;;;;;;;;;;5093521;28;20462;-76
2022/01/31 09:12:50;;;;;;;14.27;5.93;;;;;;;;;;5093852;28;20966;-75
2022/01/31 09:15:17;;;;;;;11.20;5.53;;;;;;;;;;5093655;28;20466;-75
2022/01/31 09:17:44;;;;;;;11.00;5.20;;;;;;;;;;5093732;28;20439;-76
2022/01/31 09:20:12;;;;;;;6.90;3.90;;;;;;;;;;5093771;28;20923;-75
2022/01/31 09:22:41;;;;;;;5.97;3.43;;;;;;;;;;5093610;28;20446;-76
2022/01/31 09:25:08;;;;;;;8.93;4.90;;;;;;;;;;5093626;28;20932;-75
2022/01/31 09:27:36;;;;;;;7.47;5.07;;;;;;;;;;5093562;28;20479;-75
2022/01/31 09:30:03;;;;;;;6.40;4.70;;;;;;;;;;5093055;28;20486;-75
2022/01/31 09:32:30;;;;;;;4.00;3.20;;;;;;;;;;5093550;28;20450;-75
2022/01/31 09:34:57;;;;;;;7.67;4.00;;;;;;;;;;5093458;28;20966;-74
2022/01/31 09:37:25;;;;;;;7.73;3.60;;;;;;;;;;5093422;28;20967;-74
2022/01/31 09:40:01;;;;;;;7.20;4.60;;;;;;;;;;5093496;28;20842;-75
2022/01/31 09:42:33;;;;;;;4.83;3.20;;;;;;;;;;5093167;28;20434;-74
2022/01/31 09:45:11;;;;;;;7.97;4.60;;;;;;;;;;5093493;28;20504;-74
2022/01/31 09:50:23;;;;;;;4.73;3.70;;;;;;;;;;5093191;28;20489;-75
2022/01/31 09:52:50;;;;;;;13.40;4.20;;;;;;;;;;5093108;28;20423;-74
2022/01/31 09:55:20;;;;;;;6.60;3.40;;;;;;;;;;5093289;28;20461;-74
2022/01/31 09:57:48;;;;;;;9.27;4.03;;;;;;;;;;5093319;28;20873;-74
2022/01/31 10:00:15;;;;;;;9.80;3.83;;;;;;;;;;5092867;28;20447;-75
2022/01/31 10:03:02;;;;;;;4.23;2.93;;;;;;;;;;5092975;28;20446;-75
2022/01/31 10:05:30;;;;;;;6.57;3.13;;;;;;;;;;5092683;28;20455;-74
2022/01/31 10:08:07;;;;;;;7.73;3.40;;;;;;;;;;5092796;28;20469;-75
2022/01/31 10:10:39;;;;;;;5.37;4.00;;;;;;;;;;5093124;28;20785;-74
2022/01/31 10:19:05;;;;;;;5.83;3.03;;;;;;;;;;5093640;28;20411;-75
2022/01/31 10:21:32;;;;;;;3.77;3.03;;;;;;;;;;5097043;28;20439;-74
2022/01/31 10:24:00;;;;;;;3.00;2.13;;;;;;;;;;5096585;28;20449;-74
2022/01/31 10:26:29;;;;;;;3.43;2.87;;;;;;;;;;5096508;28;20471;-74
2022/01/31 10:29:09;;;;;;;4.90;2.77;;;;;;;;;;5096789;28;20486;-74
2022/01/31 10:31:36;;;;;;;5.03;2.93;;;;;;;;;;5096840;28;20435;-74
2022/01/31 10:34:19;;;;;;;10.53;2.73;;;;;;;;;;5096735;28;20652;-74
2022/01/31 10:36:46;;;;;;;3.27;2.90;;;;;;;;;;5096610;28;20959;-75
2022/01/31 10:43:10;;;;;;;5.07;3.20;;;;;;;;;;5096679;28;20787;-74
2022/01/31 10:45:23;;;;;;;8.50;4.33;;;;;;;;;;5096143;28;20445;-75
2022/01/31 10:50:54;;;;;;;4.10;3.23;;;;;;;;;;5096265;28;20544;-74
2022/01/31 10:53:21;;;;;;;4.50;2.80;;;;;;;;;;5096394;28;20972;-74
2022/01/31 10:55:55;;;;;;;7.50;3.73;;;;;;;;;;5096240;28;20466;-74
2022/01/31 10:58:24;;;;;;;2.47;1.83;;;;;;;;;;5096217;28;20451;-74
2022/01/31 11:00:51;;;;;;;3.67;2.70;;;;;;;;;;5095957;28;20504;-74
2022/01/31 11:03:30;;;;;;;4.37;2.60;;;;;;;;;;5095867;28;20450;-74
2022/01/31 11:05:57;;;;;;;7.87;6.23;;;;;;;;;;5096144;28;20478;-74
2022/01/31 11:08:24;;;;;;;5.50;3.77;;;;;;;;;;5095794;28;20498;-74
2022/01/31 11:10:58;;;;;;;5.87;3.20;;;;;;;;;;5096038;28;20447;-75
2022/01/31 11:13:27;;;;;;;4.97;2.57;;;;;;;;;;5096083;28;20899;-75
2022/01/31 11:15:55;;;;;;;4.50;3.23;;;;;;;;;;5095883;28;20475;-75
2022/01/31 11:18:23;;;;;;;4.30;3.13;;;;;;;;;;5095566;28;20462;-74
2022/01/31 11:20:53;;;;;;;5.43;3.30;;;;;;;;;;5095829;28;20955;-75
2022/01/31 11:23:20;;;;;;;9.03;2.50;;;;;;;;;;5096083;28;20455;-74
2022/01/31 11:25:49;;;;;;;3.80;2.50;;;;;;;;;;5095612;28;20479;-75
2022/01/31 11:28:17;;;;;;;3.27;2.00;;;;;;;;;;5095779;28;20458;-75
2022/01/31 11:30:45;;;;;;;3.53;2.27;;;;;;;;;;5094779;28;20998;-75
2022/01/31 11:33:12;;;;;;;3.07;2.10;;;;;;;;;;5095599;28;20450;-75
2022/01/31 11:35:39;;;;;;;5.00;2.20;;;;;;;;;;5095510;28;20779;-75
2022/01/31 11:38:07;;;;;;;4.30;2.60;;;;;;;;;;5095500;28;20454;-75
2022/01/31 11:40:34;;;;;;;3.43;2.23;;;;;;;;;;5095245;28;20442;-75
2022/01/31 11:43:02;;;;;;;5.57;2.10;;;;;;;;;;5095487;28;20466;-75
2022/01/31 11:45:30;;;;;;;2.33;2.03;;;;;;;;;;5094955;28;20454;-74
2022/01/31 11:48:04;;;;;;;1.90;1.30;;;;;;;;;;5095418;28;20958;-75
2022/01/31 11:50:32;;;;;;;2.63;1.90;;;;;;;;;;5094923;28;20469;-75
2022/01/31 11:53:00;;;;;;;2.53;1.90;;;;;;;;;;5095341;28;20810;-74
2022/01/31 11:55:32;;;;;;;2.03;1.67;;;;;;;;;;5095105;28;20947;-75
2022/01/31 11:58:00;;;;;;;2.40;1.80;;;;;;;;;;5095139;28;20439;-75
2022/01/31 12:00:29;;;;;;;2.03;1.67;;;;;;;;;;5094736;28;20454;-75
2022/01/31 12:02:57;;;;;;;2.10;1.60;;;;;;;;;;5095026;28;20443;-74
2022/01/31 12:05:28;;;;;;;2.40;1.40;;;;;;;;;;5094984;28;20819;-75
2022/01/31 12:08:02;;;;;;;2.13;1.90;;;;;;;;;;5094686;28;20462;-75
2022/01/31 12:10:33;;;;;;;3.63;2.03;;;;;;;;;;5094472;28;20494;-75
2022/01/31 12:13:11;;;;;;;3.30;1.90;;;;;;;;;;5094623;28;20435;-75
2022/01/31 12:18:45;;;;;;;2.37;1.60;;;;;;;;;;5089018;28;20530;-75
2022/01/31 12:24:00;;;;;;;2.07;1.43;;;;;;;;;;5094424;28;20405;-75
2022/01/31 12:26:31;;;;;;;3.13;2.03;;;;;;;;;;5094332;28;20459;-76
2022/01/31 12:28:59;;;;;;;3.30;2.60;;;;;;;;;;5094445;28;20438;-74
2022/01/31 12:31:29;;;;;;;2.83;1.47;;;;;;;;;;5094471;28;20451;-75
2022/01/31 12:33:57;;;;;;;2.83;1.70;;;;;;;;;;5094419;28;20454;-75
2022/01/31 12:36:47;;;;;;;1.60;1.50;;;;;;;;;;5093947;28;20486;-75
2022/01/31 12:39:37;;;;;;;2.20;1.90;;;;;;;;;;5094081;28;20442;-75
2022/01/31 12:42:42;;;;;;;1.90;1.50;;;;;;;;;;5093854;28;20454;-75
2022/01/31 12:45:09;;;;;;;2.50;1.57;;;;;;;;;;5093908;28;20462;-76
2022/01/31 12:47:37;;;;;;;8.07;2.30;;;;;;;;;;5094135;28;20828;-76
2022/01/31 12:50:21;;;;;;;4.87;2.10;;;;;;;;;;5093856;28;20463;-75
2022/01/31 12:52:49;;;;;;;2.00;1.50;;;;;;;;;;5094343;28;20927;-76
2022/01/31 12:55:17;;;;;;;2.90;2.17;;;;;;;;;;5093837;28;20462;-76
2022/01/31 12:57:48;;;;;;;2.60;1.90;;;;;;;;;;5094033;28;20463;-75
2022/01/31 13:00:15;;;;;;;3.30;1.90;;;;;;;;;;5093924;28;20458;-75
2022/01/31 13:02:48;;;;;;;10.20;1.97;;;;;;;;;;5093818;28;20478;-76
2022/01/31 13:05:15;;;;;;;2.20;1.73;;;;;;;;;;5093912;28;20471;-76
2022/01/31 13:07:42;;;;;;;4.90;2.30;;;;;;;;;;5093603;28;20845;-76
2022/01/31 13:10:13;;;;;;;5.20;2.53;;;;;;;;;;5093769;28;21011;-76
2022/01/31 13:12:40;;;;;;;2.60;1.90;;;;;;;;;;5093902;28;20461;-75
2022/01/31 13:15:07;;;;;;;3.57;1.97;;;;;;;;;;5093638;28;20906;-76
2022/01/31 13:17:35;;;;;;;2.60;1.70;;;;;;;;;;5093552;28;20473;-76
2022/01/31 13:20:03;;;;;;;2.33;1.83;;;;;;;;;;5093773;28;20928;-74
2022/01/31 13:22:34;;;;;;;1.73;1.57;;;;;;;;;;5093373;28;20454;-75
2022/01/31 13:25:05;;;;;;;2.20;1.80;;;;;;;;;;5093422;28;20442;-76
2022/01/31 13:27:34;;;;;;;1.50;1.30;;;;;;;;;;5093552;28;20462;-75
2022/01/31 13:30:02;;;;;;;1.90;1.50;;;;;;;;;;5093666;28;20836;-75
2022/01/31 13:32:30;;;;;;;4.00;2.07;;;;;;;;;;5093331;28;20447;-75
2022/01/31 13:34:59;;;;;;;5.60;2.43;;;;;;;;;;5093547;28;20786;-75
2022/01/31 13:37:44;;;;;;;3.30;2.00;;;;;;;;;;5093769;28;20550;-75
2022/01/31 13:40:13;;;;;;;1.83;1.60;;;;;;;;;;5094152;28;20455;-76
2022/01/31 13:42:43;;;;;;;4.93;1.60;;;;;;;;;;5093501;28;20450;-75
2022/01/31 13:45:16;;;;;;;2.63;1.40;;;;;;;;;;5093436;28;20999;-75
2022/01/31 13:47:49;;;;;;;1.73;1.30;;;;;;;;;;5093901;28;20962;-78
2022/01/31 13:50:17;;;;;;;1.60;1.50;;;;;;;;;;5093650;28;20967;-75
2022/01/31 13:52:58;;;;;;;1.80;1.30;;;;;;;;;;5093559;28;20447;-75
2022/01/31 13:55:26;;;;;;;2.87;1.37;;;;;;;;;;5096765;28;20438;-74
2022/01/31 13:57:55;;;;;;;2.50;2.10;;;;;;;;;;5097606;28;20942;-76
2022/01/31 14:00:23;;;;;;;1.77;1.50;;;;;;;;;;5097903;28;20474;-76
2022/01/31 14:03:08;;;;;;;2.67;1.03;;;;;;;;;;5097525;28;20963;-76
2022/01/31 14:05:36;;;;;;;2.73;1.73;;;;;;;;;;5087460;28;20470;-76
2022/01/31 14:08:05;;;;;;;3.93;1.60;;;;;;;;;;5096945;28;20826;-75
2022/01/31 14:10:32;;;;;;;3.20;1.73;;;;;;;;;;5097463;28;20925;-77
2022/01/31 14:13:02;;;;;;;2.03;1.20;;;;;;;;;;5097137;28;20529;-76
2022/01/31 14:15:29;;;;;;;3.67;1.57;;;;;;;;;;5096912;28;20960;-76
2022/01/31 14:17:56;;;;;;;1.97;1.53;;;;;;;;;;5097130;28;20457;-76
2022/01/31 14:20:24;;;;;;;2.10;1.30;;;;;;;;;;5097226;28;20449;-74
2022/01/31 14:23:00;;;;;;;3.90;1.40;;;;;;;;;;5097072;28;20457;-75
2022/01/31 14:25:35;;;;;;;1.40;1.00;;;;;;;;;;5096581;28;20450;-76
2022/01/31 14:28:05;;;;;;;1.40;1.10;;;;;;;;;;5097040;28;20919;-76
2022/01/31 14:30:32;;;;;;;3.20;1.90;;;;;;;;;;5096564;28;20513;-75
2022/01/31 14:33:04;;;;;;;3.13;1.43;;;;;;;;;;5096777;28;20446;-75
2022/01/31 14:35:31;;;;;;;5.17;2.17;;;;;;;;;;5096675;28;20816;-76
2022/01/31 14:37:58;;;;;;;2.90;1.50;;;;;;;;;;5096738;28;20458;-76
2022/01/31 14:43:20;;;;;;;1.83;1.20;;;;;;;;;;5096429;28;20406;-75
2022/01/31 14:48:39;;;;;;;9.40;3.40;;;;;;;;;;5096366;28;20776;-75
2022/01/31 14:51:06;;;;;;;5.40;1.60;;;;;;;;;;5096249;28;20473;-76
2022/01/31 14:53:33;;;;;;;2.70;1.80;;;;;;;;;;5096515;28;20465;-75
2022/01/31 14:56:00;;;;;;;2.27;1.50;;;;;;;;;;5096018;28;20471;-75
2022/01/31 14:58:28;;;;;;;2.10;1.67;;;;;;;;;;5096412;28;20815;-75
2022/01/31 15:00:59;;;;;;;1.93;1.60;;;;;;;;;;5096159;28;20450;-75
2022/01/31 15:03:28;;;;;;;2.27;1.53;;;;;;;;;;5096236;28;20434;-75
2022/01/31 15:05:55;;;;;;;5.10;2.33;;;;;;;;;;5094718;28;20474;-81
2022/01/31 15:08:22;;;;;;;6.20;2.50;;;;;;;;;;5095846;28;20462;-75
2022/01/31 15:10:50;;;;;;;3.87;1.70;;;;;;;;;;5095677;28;20490;-75
2022/01/31 15:13:18;;;;;;;2.13;1.23;;;;;;;;;;5096123;28;20458;-76
2022/01/31 15:15:51;;;;;;;6.23;2.67;;;;;;;;;;5095892;28;20506;-75
2022/01/31 15:18:18;;;;;;;3.10;2.03;;;;;;;;;;5095999;28;20466;-76